Time;durP1;ratioP1;P1;durP2;ratioP2;P2;SDS_P1;SDS_P2;PMS_P1;PMS_P2;Temp;Humidity;BMP_temperature;BMP_pressure;BME280_temperature;BME280_humidity;BME280_pressure;Samples;Min_cycle;Max_cycle;Signal;HPM_P1;HPM_P2
2022/04/02 00:00:41;;;;;;;5.57;5.03;;;1.00;99.90;;;;;;5114963;28;20116;-42
2022/04/02 00:03:07;;;;;;;8.13;6.03;;;0.90;99.90;;;;;;5111855;28;20103;-41
2022/04/02 00:05:32;;;;;;;7.70;5.20;;;1.00;99.90;;;;;;5112570;28;20046;-41
2022/04/02 00:07:58;;;;;;;9.10;5.68;;;0.90;99.90;;;;;;5114860;28;20432;-40
2022/04/02 00:10:23;;;;;;;6.25;5.65;;;0.90;99.90;;;;;;5115358;28;20062;-42
2022/04/02 00:12:49;;;;;;;9.10;5.40;;;0.90;99.90;;;;;;5117288;28;20103;-41
2022/04/02 00:15:15;;;;;;;7.35;5.25;;;0.90;99.90;;;;;;5119438;28;20099;-41
2022/04/02 00:17:40;;;;;;;7.93;5.15;;;0.90;99.90;;;;;;5119954;28;20028;-40
2022/04/02 00:20:07;;;;;;;8.05;5.35;;;0.90;99.90;;;;;;5101037;28;20024;-41
2022/04/02 00:22:32;;;;;;;5.25;4.75;;;0.90;99.90;;;;;;5119995;28;20130;-41
2022/04/02 00:24:58;;;;;;;9.05;5.03;;;0.90;99.90;;;;;;5117507;28;20020;-41
2022/04/02 00:27:23;;;;;;;6.82;5.53;;;0.90;99.90;;;;;;5097504;28;20394;-42
2022/04/02 00:29:49;;;;;;;5.22;4.72;;;1.00;99.90;;;;;;5115728;28;20028;-40
2022/04/02 00:32:15;;;;;;;6.30;5.18;;;0.90;99.90;;;;;;5115381;28;20547;-42
2022/04/02 00:34:40;;;;;;;6.97;4.97;;;0.90;99.90;;;;;;5115249;28;20032;-40
2022/04/02 00:37:06;;;;;;;6.47;5.00;;;0.90;99.90;;;;;;5114673;28;20030;-43
2022/04/02 00:39:32;;;;;;;6.85;5.22;;;1.00;99.90;;;;;;5115078;28;20395;-41
2022/04/02 00:41:57;;;;;;;5.07;4.55;;;0.90;99.90;;;;;;5115357;28;20038;-43
2022/04/02 00:44:25;;;;;;;9.32;4.53;;;0.90;99.90;;;;;;5114737;28;20023;-44
2022/04/02 00:46:50;;;;;;;7.57;5.05;;;0.90;99.90;;;;;;5114659;28;20030;-43
2022/04/02 00:49:16;;;;;;;5.25;4.30;;;0.90;99.90;;;;;;5096479;28;20487;-42
2022/04/02 00:51:43;;;;;;;18.13;4.30;;;1.00;99.90;;;;;;5114791;28;20045;-43
2022/04/02 00:54:13;;;;;;;4.63;4.13;;;0.90;99.90;;;;;;5097621;28;20027;-41
2022/04/02 00:56:40;;;;;;;4.18;3.78;;;0.90;99.90;;;;;;5115637;28;20034;-43
2022/04/02 00:59:06;;;;;;;8.55;4.40;;;0.90;99.90;;;;;;5114338;28;20095;-43
2022/04/02 01:01:32;;;;;;;5.28;4.05;;;0.90;99.90;;;;;;5114448;28;20031;-41
2022/04/02 01:03:59;;;;;;;5.45;4.45;;;0.90;99.90;;;;;;5114727;28;20025;-42
2022/04/02 01:06:26;;;;;;;7.40;4.13;;;0.90;99.90;;;;;;5114504;28;20020;-42
2022/04/02 01:08:51;;;;;;;4.50;4.10;;;0.90;99.90;;;;;;5114497;28;20098;-42
2022/04/02 01:11:17;;;;;;;4.43;3.92;;;0.90;99.90;;;;;;5114780;28;20512;-42
2022/04/02 01:13:43;;;;;;;6.30;4.30;;;0.90;99.90;;;;;;5114101;28;20505;-43
2022/04/02 01:16:09;;;;;;;5.30;4.38;;;0.90;99.90;;;;;;5114311;28;20111;-43
2022/04/02 01:18:34;;;;;;;4.90;3.90;;;0.90;99.90;;;;;;5113689;28;20059;-44
2022/04/02 01:21:00;;;;;;;8.55;4.35;;;0.90;99.90;;;;;;5114197;28;20075;-42
2022/04/02 01:23:29;;;;;;;9.65;4.45;;;0.90;99.90;;;;;;5113768;28;20253;-41
2022/04/02 01:25:56;;;;;;;6.40;4.18;;;0.90;99.90;;;;;;5113686;28;20398;-42
2022/04/02 01:28:22;;;;;;;4.47;4.07;;;0.90;99.90;;;;;;5113600;28;20035;-43
2022/04/02 01:30:48;;;;;;;9.30;3.75;;;0.80;99.90;;;;;;5113788;28;20019;-43
2022/04/02 01:33:13;;;;;;;15.93;3.78;;;0.80;99.90;;;;;;5095176;28;20023;-42
2022/04/02 01:35:39;;;;;;;3.70;3.35;;;0.80;99.90;;;;;;5095113;28;20035;-44
2022/04/02 01:38:04;;;;;;;5.68;4.40;;;0.80;99.90;;;;;;5113191;28;20562;-44
2022/04/02 01:40:30;;;;;;;6.80;3.40;;;0.80;99.90;;;;;;5113364;28;20039;-42
2022/04/02 01:42:55;;;;;;;9.63;4.82;;;0.80;99.90;;;;;;5113269;28;20042;-42
2022/04/02 01:45:21;;;;;;;7.20;4.57;;;0.80;99.90;;;;;;5113382;28;20402;-42
2022/04/02 01:47:50;;;;;;;3.75;2.97;;;0.80;99.90;;;;;;5112940;28;20071;-42
2022/04/02 01:50:16;;;;;;;8.55;4.30;;;0.90;99.90;;;;;;5113298;28;20016;-44
2022/04/02 01:52:41;;;;;;;5.80;3.80;;;0.90;99.90;;;;;;5113062;28;20019;-41
2022/04/02 01:55:07;;;;;;;7.80;3.47;;;0.80;99.90;;;;;;5113096;28;20024;-42
2022/04/02 01:57:33;;;;;;;3.65;3.35;;;0.90;99.90;;;;;;5112682;28;20028;-41
2022/04/02 01:59:58;;;;;;;13.13;4.65;;;0.80;99.90;;;;;;5113006;28;20019;-42
2022/04/02 02:02:24;;;;;;;5.28;4.65;;;0.80;99.90;;;;;;5113383;28;20024;-42
2022/04/02 02:04:49;;;;;;;5.25;3.17;;;0.80;99.90;;;;;;5112902;28;20110;-41
2022/04/02 02:07:15;;;;;;;4.38;3.75;;;0.80;99.90;;;;;;5112023;28;20323;-39
2022/04/02 02:09:40;;;;;;;5.78;4.45;;;0.80;99.90;;;;;;5112912;28;20023;-42
2022/04/02 02:12:06;;;;;;;4.95;4.20;;;0.70;99.90;;;;;;5112756;28;20486;-42
2022/04/02 02:14:32;;;;;;;7.88;4.00;;;0.70;99.90;;;;;;5112733;28;20039;-42
2022/04/02 02:16:57;;;;;;;4.53;4.07;;;0.70;99.90;;;;;;5112357;28;20604;-42
2022/04/02 02:19:23;;;;;;;6.55;3.28;;;0.70;99.90;;;;;;5113100;28;20385;-45
2022/04/02 02:21:48;;;;;;;4.13;3.72;;;0.80;99.90;;;;;;5112360;28;20116;-40
2022/04/02 02:24:14;;;;;;;4.90;3.95;;;0.70;99.90;;;;;;5094339;28;20019;-40
2022/04/02 02:26:39;;;;;;;4.97;4.20;;;0.70;99.90;;;;;;5112508;28;20027;-42
2022/04/02 02:29:06;;;;;;;6.05;3.88;;;0.70;99.90;;;;;;5111752;28;20486;-42
2022/04/02 02:31:35;;;;;;;8.10;4.30;;;0.70;99.90;;;;;;5112405;28;20023;-41
2022/04/02 02:36:46;;;;;;;8.23;4.07;;;0.70;99.90;;;;;;5112545;28;20104;-41
2022/04/02 02:39:11;;;;;;;5.90;3.88;;;0.70;99.90;;;;;;5112441;28;20032;-40
2022/04/02 02:41:37;;;;;;;4.95;4.05;;;0.70;99.90;;;;;;5112285;28;20053;-40
2022/04/02 02:44:03;;;;;;;6.95;3.92;;;0.60;99.90;;;;;;5112806;28;20020;-40
2022/04/02 02:46:29;;;;;;;4.80;4.22;;;0.70;99.90;;;;;;5112174;28;20027;-40
2022/04/02 02:48:55;;;;;;;7.13;4.43;;;0.60;99.90;;;;;;5111871;28;20019;-41
2022/04/02 02:51:21;;;;;;;4.93;4.07;;;0.70;99.90;;;;;;5112212;28;20502;-42
2022/04/02 02:53:46;;;;;;;6.97;4.85;;;0.70;99.90;;;;;;5112091;28;20024;-39
2022/04/02 02:56:12;;;;;;;7.35;3.85;;;0.80;99.90;;;;;;5112254;28;20020;-39
2022/04/02 02:58:37;;;;;;;5.90;3.42;;;0.70;99.90;;;;;;5111811;28;20028;-39
2022/04/02 03:01:04;;;;;;;6.72;4.25;;;0.60;99.90;;;;;;5093712;28;20118;-41
2022/04/02 03:03:31;;;;;;;5.97;4.10;;;0.60;99.90;;;;;;5111886;28;20020;-41
2022/04/02 03:05:57;;;;;;;10.35;3.95;;;0.60;99.90;;;;;;5111802;28;20034;-41
2022/04/02 03:08:22;;;;;;;9.50;4.90;;;0.60;99.90;;;;;;5111413;28;20023;-40
2022/04/02 03:10:48;;;;;;;4.53;4.15;;;0.60;99.90;;;;;;5111849;28;20103;-40
2022/04/02 03:13:14;;;;;;;6.10;4.10;;;0.60;99.90;;;;;;5111725;28;20020;-39
2022/04/02 03:15:40;;;;;;;5.43;3.75;;;0.60;99.90;;;;;;5111962;28;20096;-39
2022/04/02 03:18:07;;;;;;;4.43;3.92;;;0.50;99.90;;;;;;5111535;28;20067;-40
2022/04/02 03:20:34;;;;;;;6.95;4.32;;;0.50;99.90;;;;;;5093695;28;20538;-39
2022/04/02 03:22:59;;;;;;;8.35;4.18;;;0.50;99.90;;;;;;5111735;28;20164;-40
2022/04/02 03:25:26;;;;;;;5.22;3.63;;;0.50;99.90;;;;;;5111701;28;20342;-40
2022/04/02 03:27:53;;;;;;;5.82;4.97;;;0.60;99.90;;;;;;5111332;28;20517;-41
2022/04/02 03:30:20;;;;;;;5.63;4.00;;;0.60;99.90;;;;;;5111834;28;20098;-40
2022/04/02 03:32:47;;;;;;;11.05;4.20;;;0.60;99.90;;;;;;5112070;28;20051;-40
2022/04/02 03:35:16;;;;;;;7.85;3.67;;;0.60;99.90;;;;;;5111838;28;20084;-40
2022/04/02 03:37:43;;;;;;;8.77;4.18;;;0.50;99.90;;;;;;5111339;28;20019;-38
2022/04/02 03:40:14;;;;;;;9.27;4.30;;;0.50;99.90;;;;;;5111986;28;20023;-40
2022/04/02 03:42:41;;;;;;;10.27;5.22;;;0.50;99.90;;;;;;5115466;28;20023;-40
2022/04/02 03:45:10;;;;;;;5.25;4.10;;;0.50;99.90;;;;;;5115571;28;20016;-43
2022/04/02 03:47:36;;;;;;;6.60;4.32;;;0.40;99.90;;;;;;5115205;28;20024;-41
2022/04/02 03:50:03;;;;;;;6.75;4.53;;;0.40;99.90;;;;;;5115558;28;20034;-42
2022/04/02 03:52:29;;;;;;;8.07;4.65;;;0.50;99.90;;;;;;5115461;28;20024;-43
2022/04/02 03:54:54;;;;;;;5.60;5.05;;;0.40;99.90;;;;;;5115244;28;20020;-42
2022/04/02 03:57:21;;;;;;;8.98;4.65;;;0.50;99.90;;;;;;5115220;28;20395;-40
2022/04/02 03:59:46;;;;;;;6.57;4.95;;;0.50;99.90;;;;;;5115221;28;20020;-41
2022/04/02 04:02:12;;;;;;;13.13;6.35;;;0.40;99.90;;;;;;5097024;28;20076;-39
2022/04/02 04:04:39;;;;;;;8.52;4.70;;;0.40;99.90;;;;;;5115463;28;20390;-40
2022/04/02 04:07:05;;;;;;;10.10;4.85;;;0.40;99.90;;;;;;5114623;28;20031;-43
2022/04/02 04:09:30;;;;;;;7.22;4.88;;;0.40;99.90;;;;;;5115180;28;20062;-41
2022/04/02 04:11:57;;;;;;;6.20;5.22;;;0.40;99.90;;;;;;5115135;28;20062;-39
2022/04/02 04:14:24;;;;;;;7.63;4.63;;;0.40;99.90;;;;;;5096687;28;20027;-40
2022/04/02 04:16:50;;;;;;;9.00;5.72;;;0.40;99.90;;;;;;5114905;28;20153;-39
2022/04/02 04:19:16;;;;;;;9.35;4.60;;;0.40;99.90;;;;;;5096694;28;20035;-44
2022/04/02 04:21:43;;;;;;;7.13;5.18;;;0.30;99.90;;;;;;5096446;28;20032;-40
2022/04/02 04:24:09;;;;;;;7.55;4.75;;;0.30;99.90;;;;;;5116108;28;20020;-40
2022/04/02 04:26:35;;;;;;;7.35;5.70;;;0.40;99.90;;;;;;5097639;28;20023;-40
2022/04/02 04:29:00;;;;;;;6.13;5.35;;;0.30;99.90;;;;;;5116219;28;20072;-39
2022/04/02 04:31:26;;;;;;;7.47;4.93;;;0.30;99.90;;;;;;5116322;28;20028;-40
2022/04/02 04:33:52;;;;;;;13.02;5.57;;;0.20;99.90;;;;;;5116449;28;20069;-40
2022/04/02 04:36:18;;;;;;;8.50;5.32;;;0.20;99.90;;;;;;5116281;28;20059;-40
2022/04/02 04:38:48;;;;;;;8.68;5.97;;;0.20;99.90;;;;;;5097270;28;20023;-39
2022/04/02 04:41:13;;;;;;;13.68;6.00;;;0.20;99.90;;;;;;5114474;28;20023;-41
2022/04/02 04:43:41;;;;;;;6.55;5.38;;;0.20;99.90;;;;;;5114702;28;20169;-38
2022/04/02 04:46:07;;;;;;;9.98;6.10;;;0.20;99.90;;;;;;5114207;28;20031;-39
2022/04/02 04:48:33;;;;;;;9.55;5.80;;;0.20;99.90;;;;;;5113856;28;20394;-41
2022/04/02 04:50:58;;;;;;;11.30;6.18;;;0.20;99.90;;;;;;5113988;28;20019;-40
2022/04/02 04:53:24;;;;;;;10.00;5.55;;;0.20;99.90;;;;;;5114109;28;20497;-40
2022/04/02 04:55:49;;;;;;;15.73;5.40;;;0.20;99.90;;;;;;5114131;28;20502;-39
2022/04/02 04:58:15;;;;;;;7.82;5.82;;;0.20;99.90;;;;;;5114001;28;20072;-43
2022/04/02 05:00:41;;;;;;;11.23;5.20;;;0.20;99.90;;;;;;5114104;28;20034;-40
2022/04/02 05:03:08;;;;;;;10.30;5.05;;;0.20;99.90;;;;;;5114030;28;20028;-41
2022/04/02 05:05:34;;;;;;;6.22;5.35;;;0.20;99.90;;;;;;5114193;28;20409;-39
2022/04/02 05:08:01;;;;;;;6.72;4.53;;;0.20;99.90;;;;;;5113356;28;20546;-41
2022/04/02 05:10:27;;;;;;;7.20;5.55;;;0.20;99.90;;;;;;5114042;28;20027;-42
2022/04/02 05:12:53;;;;;;;10.73;5.68;;;0.20;99.90;;;;;;5113927;28;20495;-44
2022/04/02 05:15:18;;;;;;;8.57;6.55;;;0.20;99.90;;;;;;5113902;28;20024;-40
2022/04/02 05:17:45;;;;;;;9.25;4.68;;;0.20;99.90;;;;;;5094965;28;20047;-39
2022/04/02 05:20:12;;;;;;;6.95;5.45;;;0.20;99.90;;;;;;5113838;28;20501;-39
2022/04/02 05:22:38;;;;;;;5.80;5.10;;;0.20;99.90;;;;;;5113450;28;20043;-41
2022/04/02 05:25:04;;;;;;;7.10;5.03;;;0.20;99.90;;;;;;5114202;28;20023;-39
2022/04/02 05:27:30;;;;;;;8.35;5.05;;;0.20;99.90;;;;;;5113202;28;20023;-41
2022/04/02 05:29:55;;;;;;;7.72;4.53;;;0.20;99.90;;;;;;5113541;28;20099;-39
2022/04/02 05:32:21;;;;;;;8.52;4.88;;;0.20;99.90;;;;;;5113411;28;20484;-41
2022/04/02 05:34:47;;;;;;;7.35;5.63;;;0.20;99.90;;;;;;5113945;28;20387;-42
2022/04/02 05:37:13;;;;;;;8.90;4.88;;;0.30;99.90;;;;;;5113071;28;20019;-40
2022/04/02 05:39:41;;;;;;;8.23;4.30;;;0.30;99.90;;;;;;5113475;28;20020;-42
2022/04/02 05:42:07;;;;;;;9.07;5.13;;;0.30;99.90;;;;;;5113345;28;20581;-42
2022/04/02 05:44:32;;;;;;;9.20;6.05;;;0.20;99.90;;;;;;5113395;28;20032;-40
2022/04/02 05:46:58;;;;;;;4.85;4.13;;;0.20;99.90;;;;;;5094565;28;20062;-41
2022/04/02 05:49:24;;;;;;;9.48;4.50;;;0.20;99.90;;;;;;5113280;28;20372;-41
2022/04/02 05:51:49;;;;;;;5.25;4.75;;;0.10;99.90;;;;;;5113323;28;20443;-40
2022/04/02 05:54:15;;;;;;;6.72;4.50;;;0.20;99.90;;;;;;5113090;28;20103;-41
2022/04/02 05:56:42;;;;;;;8.63;5.25;;;0.20;99.90;;;;;;5112951;28;20038;-41
2022/04/02 05:59:08;;;;;;;5.90;4.38;;;0.20;99.90;;;;;;5112838;28;20453;-42
2022/04/02 06:01:35;;;;;;;6.93;4.38;;;0.20;99.90;;;;;;5112708;28;20114;-39
2022/04/02 06:04:00;;;;;;;5.90;5.20;;;0.20;99.90;;;;;;5112299;28;20019;-40
2022/04/02 06:06:26;;;;;;;7.80;5.88;;;0.20;99.90;;;;;;5112941;28;20046;-41
2022/04/02 06:08:51;;;;;;;5.25;4.50;;;0.20;99.90;;;;;;5112885;28;20023;-41
2022/04/02 06:11:17;;;;;;;5.72;3.65;;;0.30;99.90;;;;;;5112821;28;20019;-41
2022/04/02 06:13:42;;;;;;;9.05;5.35;;;0.30;99.90;;;;;;5112697;28;20474;-40
2022/04/02 06:16:08;;;;;;;6.18;4.40;;;0.30;99.90;;;;;;5112537;28;20019;-39
2022/04/02 06:18:34;;;;;;;6.07;5.05;;;0.30;99.90;;;;;;5112456;28;20298;-40
2022/04/02 06:21:03;;;;;;;5.40;4.90;;;0.30;99.90;;;;;;5112701;28;20031;-42
2022/04/02 06:23:29;;;;;;;9.98;4.50;;;0.30;99.90;;;;;;5112449;28;20031;-40
2022/04/02 06:25:55;;;;;;;8.80;4.28;;;0.30;99.90;;;;;;5112346;28;20205;-42
2022/04/02 06:28:20;;;;;;;11.52;4.53;;;0.40;99.90;;;;;;5112251;28;20103;-41
2022/04/02 06:30:46;;;;;;;7.35;4.70;;;0.30;99.90;;;;;;5112590;28;20028;-40
2022/04/02 06:33:11;;;;;;;9.10;5.10;;;0.30;99.90;;;;;;5112497;28;20019;-40
2022/04/02 06:35:37;;;;;;;5.22;4.20;;;0.40;99.90;;;;;;5094285;28;20028;-41
2022/04/02 06:38:03;;;;;;;6.25;4.68;;;0.40;99.90;;;;;;5112052;28;20032;-44
2022/04/02 06:40:28;;;;;;;8.68;4.63;;;0.40;99.90;;;;;;5112190;28;20474;-41
2022/04/02 06:42:56;;;;;;;5.60;4.65;;;0.40;99.90;;;;;;5112252;28;20054;-41
2022/04/02 06:45:22;;;;;;;9.60;5.05;;;0.40;99.90;;;;;;5112197;28;20048;-39
2022/04/02 06:47:47;;;;;;;6.30;5.05;;;0.40;99.90;;;;;;5111877;28;20051;-39
2022/04/02 06:50:14;;;;;;;9.55;4.93;;;0.40;99.90;;;;;;5112233;28;20023;-40
2022/04/02 06:52:41;;;;;;;7.10;4.50;;;0.30;99.90;;;;;;5111954;28;20016;-41
2022/04/02 06:55:11;;;;;;;5.60;3.72;;;0.30;99.90;;;;;;5112405;28;20494;-41
2022/04/02 06:57:51;;;;;;;5.63;4.45;;;0.30;99.90;;;;;;5093876;28;20030;-39
2022/04/02 07:00:17;;;;;;;6.93;4.97;;;0.40;99.90;;;;;;5112372;28;20020;-42
2022/04/02 07:02:44;;;;;;;8.13;4.30;;;0.40;99.90;;;;;;5093597;28;20510;-43
2022/04/02 07:05:10;;;;;;;5.25;4.38;;;0.40;99.90;;;;;;5111978;28;20023;-40
2022/04/02 07:07:35;;;;;;;7.10;5.18;;;0.40;99.90;;;;;;5111374;28;20509;-39
2022/04/02 07:10:04;;;;;;;5.38;4.88;;;0.40;99.90;;;;;;5112292;28;20096;-40
2022/04/02 07:12:29;;;;;;;8.32;4.90;;;0.40;99.90;;;;;;5112009;28;20028;-40
2022/04/02 07:14:55;;;;;;;7.45;4.70;;;0.50;99.90;;;;;;5113742;28;20516;-43
2022/04/02 07:17:21;;;;;;;6.88;4.15;;;0.50;99.90;;;;;;5115963;28;20487;-40
2022/04/02 07:19:48;;;;;;;8.55;4.75;;;0.50;99.90;;;;;;5116056;28;20028;-41
2022/04/02 07:22:15;;;;;;;8.68;5.28;;;0.50;99.90;;;;;;5116076;28;20084;-39
2022/04/02 07:24:41;;;;;;;7.95;4.57;;;0.50;99.90;;;;;;5116224;28;20048;-40
2022/04/02 07:27:07;;;;;;;10.50;6.25;;;0.60;99.90;;;;;;5115835;28;20450;-40
2022/04/02 07:29:34;;;;;;;6.25;4.38;;;0.60;99.90;;;;;;5116191;28;20387;-39
2022/04/02 07:32:00;;;;;;;4.43;4.03;;;0.60;99.90;;;;;;5119786;28;20027;-40
2022/04/02 07:34:26;;;;;;;5.50;4.30;;;0.60;99.90;;;;;;5121274;28;20070;-40
2022/04/02 07:37:07;;;;;;;6.57;4.40;;;0.60;99.90;;;;;;5120891;28;20555;-40
2022/04/02 07:39:49;;;;;;;6.40;4.05;;;0.70;99.90;;;;;;5102738;28;20023;-40
2022/04/02 07:42:37;;;;;;;6.95;4.35;;;0.80;99.90;;;;;;5118937;28;20023;-41
2022/04/02 07:45:08;;;;;;;5.60;3.88;;;0.80;99.90;;;;;;5116812;28;20024;-40
2022/04/02 07:47:36;;;;;;;4.47;3.53;;;0.90;99.90;;;;;;5116149;28;20030;-41
2022/04/02 07:50:04;;;;;;;7.45;5.40;;;0.80;99.90;;;;;;5116545;28;20080;-43
2022/04/02 07:52:29;;;;;;;5.38;3.95;;;0.80;99.90;;;;;;5116096;28;20019;-40
2022/04/02 07:54:59;;;;;;;9.63;4.00;;;0.80;99.90;;;;;;5116050;28;20024;-40
2022/04/02 07:57:38;;;;;;;5.97;4.22;;;0.90;99.90;;;;;;5115633;28;20277;-40
2022/04/02 08:00:05;;;;;;;10.40;4.25;;;1.00;99.90;;;;;;5115489;28;20027;-41
2022/04/02 08:02:37;;;;;;;5.03;4.47;;;1.10;99.90;;;;;;5115513;28;20106;-40
2022/04/02 08:05:10;;;;;;;9.40;4.20;;;1.20;99.90;;;;;;5115789;28;20483;-40
2022/04/02 08:07:43;;;;;;;7.20;3.92;;;1.10;99.90;;;;;;5097642;28;20505;-41
2022/04/02 08:10:11;;;;;;;8.68;3.65;;;1.10;99.90;;;;;;5097014;28;20027;-40
2022/04/02 08:12:39;;;;;;;4.55;4.10;;;1.10;99.90;;;;;;5115143;28;20055;-42
2022/04/02 08:15:07;;;;;;;8.18;4.95;;;1.20;99.90;;;;;;5115217;28;20020;-40
2022/04/02 08:17:34;;;;;;;3.95;3.63;;;1.10;99.90;;;;;;5096745;28;20031;-40
2022/04/02 08:20:01;;;;;;;7.03;4.10;;;1.00;99.90;;;;;;5115022;28;20055;-42
2022/04/02 08:22:27;;;;;;;4.43;3.83;;;1.00;99.90;;;;;;5114911;28;20533;-42
2022/04/02 08:24:54;;;;;;;3.83;3.53;;;1.10;99.90;;;;;;5115035;28;20069;-43
2022/04/02 08:27:47;;;;;;;11.20;4.13;;;1.10;99.90;;;;;;5113792;28;20059;-40
2022/04/02 08:30:24;;;;;;;9.13;4.43;;;1.10;99.90;;;;;;5114998;28;20055;-40
2022/04/02 08:33:24;;;;;;;8.88;4.43;;;1.20;99.90;;;;;;5096679;28;20016;-43
2022/04/02 08:35:50;;;;;;;5.20;3.92;;;1.40;99.90;;;;;;5114963;28;20023;-40
2022/04/02 08:38:35;;;;;;;10.57;4.40;;;1.30;99.90;;;;;;5096179;28;20031;-40
2022/04/02 08:41:22;;;;;;;11.17;4.63;;;1.30;99.90;;;;;;5115575;28;20047;-39
2022/04/02 08:44:15;;;;;;;8.57;4.43;;;1.50;99.90;;;;;;5114712;28;20478;-40
2022/04/02 08:47:07;;;;;;;5.57;4.00;;;1.50;99.90;;;;;;5096634;28;20065;-43
2022/04/02 08:49:46;;;;;;;6.70;4.22;;;1.60;99.90;;;;;;5116686;28;20016;-41
2022/04/02 08:52:15;;;;;;;4.88;4.10;;;1.80;99.90;;;;;;5117666;28;20022;-40
2022/04/02 08:54:55;;;;;;;5.55;4.10;;;1.90;99.90;;;;;;5119152;28;20030;-41
2022/04/02 08:57:32;;;;;;;6.45;3.67;;;1.90;99.90;;;;;;5114046;28;20092;-40
2022/04/02 09:00:08;;;;;;;7.22;4.35;;;1.80;99.90;;;;;;5114233;28;20027;-40
2022/04/02 09:02:47;;;;;;;5.50;3.53;;;1.90;99.90;;;;;;5113846;28;20024;-40
2022/04/02 09:05:21;;;;;;;8.18;4.18;;;1.90;99.90;;;;;;5114438;28;20041;-40
2022/04/02 09:07:59;;;;;;;4.72;3.55;;;1.90;99.90;;;;;;5113823;28;20491;-40
2022/04/02 09:10:44;;;;;;;8.20;4.07;;;1.90;99.90;;;;;;5113994;28;20094;-40
2022/04/02 09:13:28;;;;;;;4.68;3.55;;;1.90;99.90;;;;;;5113785;28;20020;-41
2022/04/02 09:16:10;;;;;;;5.20;4.15;;;2.00;99.90;;;;;;5095351;28;20491;-41
2022/04/02 09:18:46;;;;;;;7.60;4.00;;;2.00;99.90;;;;;;5113721;28;20036;-41
2022/04/02 09:21:50;;;;;;;4.75;3.45;;;2.00;99.90;;;;;;5113882;28;20023;-41
2022/04/02 09:24:40;;;;;;;10.90;4.53;;;2.10;99.90;;;;;;5081704;28;20055;-41
2022/04/02 09:27:48;;;;;;;3.97;3.67;;;2.10;99.90;;;;;;5113211;28;20031;-41
2022/04/02 09:30:24;;;;;;;6.68;4.13;;;2.20;99.90;;;;;;5113707;28;20098;-41
2022/04/02 09:33:12;;;;;;;;;;;2.20;99.90;;;;;;5113881;28;20047;-41
2022/04/02 09:36:09;;;;;;;12.30;5.20;;;2.20;99.90;;;;;;5094293;28;19910;-41
2022/04/02 09:38:58;;;;;;;4.40;3.63;;;2.20;99.90;;;;;;5108298;28;20043;-41
2022/04/02 09:41:55;;;;;;;7.65;4.70;;;2.10;99.90;;;;;;5114104;28;20062;-41
2022/04/02 09:44:41;;;;;;;5.30;3.80;;;2.20;99.90;;;;;;5114096;28;20493;-41
2022/04/02 09:47:21;;;;;;;7.38;3.63;;;2.30;99.90;;;;;;5113647;28;20016;-40
2022/04/02 09:50:09;;;;;;;10.98;4.13;;;2.40;99.90;;;;;;5114855;28;20028;-40
2022/04/02 09:52:44;;;;;;;10.38;4.93;;;2.30;99.90;;;;;;5114896;28;20024;-41
2022/04/02 09:55:21;;;;;;;5.00;3.78;;;2.40;99.90;;;;;;5097562;28;20583;-44
2022/04/02 09:57:53;;;;;;;5.40;4.43;;;2.50;99.90;;;;;;5113694;28;20027;-42
2022/04/02 10:00:21;;;;;;;11.23;4.70;;;2.40;99.90;;;;;;5113844;28;20075;-43
2022/04/02 10:03:13;;;;;;;7.20;4.25;;;2.50;99.90;;;;;;5113544;28;20505;-43
2022/04/02 10:05:56;;;;;;;7.70;4.50;;;2.60;99.90;;;;;;5113467;28;20043;-42
2022/04/02 10:08:41;;;;;;;6.07;4.90;;;2.70;99.90;;;;;;5112891;28;20024;-41
2022/04/02 10:11:11;;;;;;;5.20;4.25;;;3.00;99.90;;;;;;5094557;28;20328;-41
2022/04/02 10:13:39;;;;;;;6.35;3.88;;;2.90;99.90;;;;;;5113568;28;20047;-39
2022/04/02 10:16:06;;;;;;;8.05;4.22;;;3.10;99.90;;;;;;5112857;28;20035;-42
2022/04/02 10:18:35;;;;;;;5.00;4.07;;;3.00;99.90;;;;;;5112689;28;20047;-40
2022/04/02 10:21:05;;;;;;;5.60;4.25;;;3.00;99.90;;;;;;5112890;28;20027;-43
2022/04/02 10:23:35;;;;;;;8.45;4.82;;;3.10;99.90;;;;;;5135576;22;20051;-42
2022/04/02 10:26:23;;;;;;;5.47;4.13;;;3.20;99.90;;;;;;5118029;28;20024;-42
2022/04/02 10:28:53;;;;;;;8.68;3.88;;;3.20;99.90;;;;;;5116105;28;20383;-41
2022/04/02 10:31:58;;;;;;;6.80;4.30;;;3.20;99.90;;;;;;5116366;28;20024;-42
2022/04/02 10:34:53;;;;;;;13.10;6.20;;;3.00;99.90;;;;;;5098982;28;20079;-42
2022/04/02 10:37:21;;;;;;;7.82;4.60;;;3.00;99.90;;;;;;5098412;28;20031;-43
2022/04/02 10:39:53;;;;;;;8.25;4.40;;;3.20;99.90;;;;;;5116296;28;20436;-39
2022/04/02 10:42:22;;;;;;;7.63;4.00;;;3.10;99.90;;;;;;5116312;28;20051;-44
2022/04/02 10:44:59;;;;;;;8.18;4.70;;;3.00;99.90;;;;;;5116320;28;20433;-42
2022/04/02 10:47:27;;;;;;;6.18;3.90;;;3.20;99.90;;;;;;5115162;28;20023;-43
2022/04/02 10:50:00;;;;;;;7.47;4.57;;;3.10;99.90;;;;;;5115567;28;20064;-38
2022/04/02 10:52:27;;;;;;;4.90;3.95;;;3.20;99.90;;;;;;5116699;28;20109;-37
2022/04/02 10:54:52;;;;;;;10.43;4.70;;;3.30;99.90;;;;;;5116676;28;20075;-46
2022/04/02 10:57:18;;;;;;;4.45;4.05;;;3.40;99.90;;;;;;5115768;28;20120;-43
2022/04/02 10:59:47;;;;;;;8.20;4.65;;;3.30;99.90;;;;;;5115935;28;20051;-43
2022/04/02 11:02:24;;;;;;;5.43;4.90;;;3.40;99.90;;;;;;5116996;28;20051;-42
2022/04/02 11:04:56;;;;;;;7.30;4.68;;;3.50;99.90;;;;;;5098706;28;20049;-39
2022/04/02 11:07:33;;;;;;;7.70;5.63;;;3.40;99.90;;;;;;5115942;28;20024;-39
2022/04/02 11:10:01;;;;;;;8.15;5.07;;;3.50;99.90;;;;;;5116878;28;20024;-43
2022/04/02 11:12:33;;;;;;;10.82;5.10;;;3.50;99.90;;;;;;5116408;28;20019;-43
2022/04/02 11:15:08;;;;;;;6.53;5.10;;;3.60;99.90;;;;;;5117685;28;20049;-38
2022/04/02 11:17:36;;;;;;;5.63;4.82;;;3.60;99.90;;;;;;5119263;28;20324;-38
2022/04/02 11:20:17;;;;;;;7.47;4.45;;;3.50;99.90;;;;;;5119005;28;20068;-43
2022/04/02 11:22:51;;;;;;;6.72;4.72;;;3.60;99.90;;;;;;5120246;28;20023;-43
2022/04/02 11:25:29;;;;;;;7.22;5.35;;;3.50;99.90;;;;;;5101546;28;20028;-44
2022/04/02 11:28:00;;;;;;;7.45;4.88;;;3.50;99.90;;;;;;5115987;28;20394;-45
2022/04/02 11:30:31;;;;;;;10.00;5.30;;;3.50;99.90;;;;;;5114961;28;20016;-45
2022/04/02 11:33:07;;;;;;;9.63;4.82;;;3.50;99.90;;;;;;5114909;28;20016;-39
2022/04/02 11:35:40;;;;;;;;;;;3.60;99.90;;;;;;5121479;28;20042;-44
2022/04/02 11:38:24;;;;;;;7.75;4.90;;;3.60;99.90;;;;;;5120752;28;20340;-44
2022/04/02 11:41:27;;;;;;;7.53;5.15;;;3.50;99.90;;;;;;5115386;28;20360;-45
2022/04/02 11:44:05;;;;;;;18.92;11.50;;;3.60;99.90;;;;;;5116821;28;20071;-48
2022/04/02 11:47:00;;;;;;;11.05;5.20;;;3.70;99.90;;;;;;5115366;28;20062;-43
2022/04/02 11:49:34;;;;;;;6.20;4.22;;;3.80;99.90;;;;;;5118029;28;20028;-44
2022/04/02 11:52:14;;;;;;;5.75;4.65;;;3.90;99.90;;;;;;5115389;28;20020;-41
2022/04/02 11:54:48;;;;;;;7.30;4.80;;;3.90;99.90;;;;;;5096992;28;20043;-39
2022/04/02 11:57:15;;;;;;;5.57;4.72;;;3.90;99.90;;;;;;5114422;28;20035;-46
2022/04/02 11:59:53;;;;;;;6.10;5.43;;;3.90;99.90;;;;;;5114778;28;20027;-48
2022/04/02 12:02:35;;;;;;;9.52;4.57;;;4.00;99.90;;;;;;5116983;28;20446;-41
2022/04/02 12:05:01;;;;;;;6.03;4.65;;;3.90;99.90;;;;;;5118735;28;20023;-44
2022/04/02 12:07:41;;;;;;;4.57;4.18;;;3.80;99.90;;;;;;5117880;28;20391;-40
2022/04/02 12:10:18;;;;;;;6.70;4.85;;;3.90;99.90;;;;;;5118837;28;20080;-44
2022/04/02 12:12:46;;;;;;;4.88;4.05;;;4.00;99.90;;;;;;5118292;28;20023;-43
2022/04/02 12:15:13;;;;;;;5.32;4.35;;;4.00;99.90;;;;;;5119071;28;20019;-44
2022/04/02 12:17:39;;;;;;;5.43;4.47;;;3.90;99.90;;;;;;5118687;28;20019;-44
2022/04/02 12:20:10;;;;;;;7.03;4.32;;;3.80;99.90;;;;;;5119800;28;20034;-39
2022/04/02 12:22:39;;;;;;;7.07;4.45;;;3.80;99.90;;;;;;5119419;28;20049;-40
2022/04/02 12:25:10;;;;;;;6.05;4.72;;;3.90;99.90;;;;;;5119497;28;20050;-44
2022/04/02 12:27:37;;;;;;;8.52;4.38;;;3.80;99.90;;;;;;5118904;28;20055;-45
2022/04/02 12:30:07;;;;;;;7.72;4.68;;;3.70;99.90;;;;;;5119509;28;20051;-49
2022/04/02 12:32:34;;;;;;;12.75;4.78;;;3.80;99.90;;;;;;5118956;28;20019;-39
2022/04/02 12:35:09;;;;;;;7.80;4.43;;;3.80;99.90;;;;;;5119463;28;20448;-40
2022/04/02 12:37:46;;;;;;;10.80;4.82;;;3.80;99.90;;;;;;5118925;28;20023;-44
2022/04/02 12:40:27;;;;;;;4.40;3.67;;;3.80;99.90;;;;;;5119386;28;20023;-44
2022/04/02 12:42:53;;;;;;;5.18;4.20;;;3.90;99.90;;;;;;5119546;28;20440;-44
2022/04/02 12:45:24;;;;;;;6.25;4.40;;;3.90;99.90;;;;;;5119168;28;20055;-43
2022/04/02 12:48:14;;;;;;;5.65;5.05;;;4.00;99.90;;;;;;5118293;28;20035;-45
2022/04/02 12:50:52;;;;;;;4.93;4.43;;;4.20;99.80;;;;;;5118884;28;20382;-45
2022/04/02 12:53:32;;;;;;;5.82;4.38;;;4.30;99.30;;;;;;5118042;28;20019;-46
2022/04/02 12:56:00;;;;;;;7.68;3.72;;;4.20;98.60;;;;;;5118572;28;20055;-43
2022/04/02 12:58:39;;;;;;;5.90;4.10;;;4.10;98.90;;;;;;5117778;28;20110;-47
2022/04/02 13:01:29;;;;;;;5.95;4.25;;;4.10;99.60;;;;;;5118225;28;20076;-38
2022/04/02 13:04:12;;;;;;;4.38;3.95;;;4.20;99.90;;;;;;5110478;28;20038;-39
2022/04/02 13:06:48;;;;;;;12.43;3.63;;;4.20;99.40;;;;;;5118640;28;20436;-38
2022/04/02 13:09:18;;;;;;;4.70;4.05;;;4.10;99.00;;;;;;5117678;28;20390;-45
2022/04/02 13:11:53;;;;;;;5.47;3.75;;;4.10;98.90;;;;;;5118372;28;20034;-44
2022/04/02 13:14:22;;;;;;;8.15;3.92;;;4.10;98.70;;;;;;5117618;28;20479;-43